Time;durP1;ratioP1;P1;durP2;ratioP2;P2;SDS_P1;SDS_P2;PMS_P1;PMS_P2;Temp;Humidity;BMP_temperature;BMP_pressure;BME280_temperature;BME280_humidity;BME280_pressure;Samples;Min_cycle;Max_cycle;Signal;HPM_P1;HPM_P2
2024/01/06 00:00:38;;;;;;;1.90;1.80;;;;;;;3.40;100.00;97419.06;4133826;28;20277;-65
2024/01/06 00:02:40;;;;;;;1.30;1.20;;;;;;;3.49;100.00;97406.88;4131037;28;20206;-65
2024/01/06 00:04:41;;;;;;;2.10;1.85;;;;;;;3.54;100.00;97409.69;4133825;28;20209;-65
2024/01/06 00:06:43;;;;;;;1.35;1.30;;;;;;;3.55;100.00;97408.63;4128087;28;20202;-65
2024/01/06 00:08:44;;;;;;;1.23;1.20;;;;;;;3.61;100.00;97415.81;4128539;28;20553;-65
2024/01/06 00:10:46;;;;;;;2.10;1.50;;;;;;;3.69;100.00;97418.19;4133549;28;20685;-65
2024/01/06 00:12:48;;;;;;;1.40;1.38;;;;;;;3.62;100.00;97409.38;4129616;28;20206;-65
2024/01/06 00:14:50;;;;;;;1.67;1.58;;;;;;;3.61;100.00;97413.09;4129739;28;20207;-65
2024/01/06 00:16:52;;;;;;;3.97;3.28;;;;;;;3.71;100.00;97418.78;4132689;28;20214;-65
2024/01/06 00:18:53;;;;;;;2.13;2.03;;;;;;;3.68;100.00;97416.53;4132205;28;20878;-65
2024/01/06 00:20:56;;;;;;;1.73;1.63;;;;;;;3.72;100.00;97412.31;4129940;28;20661;-66
2024/01/06 00:22:58;;;;;;;2.15;2.05;;;;;;;3.85;100.00;97422.91;4131419;28;20332;-66
2024/01/06 00:25:00;;;;;;;2.10;1.88;;;;;;;3.85;100.00;97417.50;4131912;28;20210;-66
2024/01/06 00:27:02;;;;;;;1.63;1.20;;;;;;;3.85;100.00;97416.66;4132664;28;20584;-66
2024/01/06 00:29:03;;;;;;;1.55;1.45;;;;;;;3.82;100.00;97417.97;4131670;28;20654;-66
2024/01/06 00:31:05;;;;;;;9.00;1.70;;;;;;;3.85;100.00;97412.06;4129524;28;20256;-66
2024/01/06 00:33:07;;;;;;;0.98;0.93;;;;;;;3.84;100.00;97409.59;4147216;28;20209;-66
2024/01/06 00:35:09;;;;;;;1.10;1.05;;;;;;;3.81;100.00;97410.09;4130241;28;20210;-67
2024/01/06 00:37:11;;;;;;;1.17;1.10;;;;;;;3.87;100.00;97407.25;4162023;28;20213;-66
2024/01/06 00:39:12;;;;;;;1.52;1.42;;;;;;;3.80;100.00;97403.84;4129743;28;20695;-66
2024/01/06 00:41:14;;;;;;;1.25;1.25;;;;;;;3.90;100.00;97408.66;4160837;28;20250;-65
2024/01/06 00:43:16;;;;;;;2.00;1.75;;;;;;;3.73;100.00;97408.53;4135200;28;20210;-68
2024/01/06 00:45:18;;;;;;;1.17;1.17;;;;;;;3.81;100.00;97410.88;4134415;28;20213;-66
2024/01/06 00:47:22;;;;;;;0.80;0.80;;;;;;;3.90;100.00;97406.78;4130883;28;20205;-65
2024/01/06 00:49:24;;;;;;;1.17;1.15;;;;;;;3.84;100.00;97410.44;4131365;28;20206;-65
2024/01/06 00:51:26;;;;;;;2.15;1.30;;;;;;;3.78;100.00;97410.53;4129436;28;20767;-65
2024/01/06 00:53:27;;;;;;;1.85;1.42;;;;;;;3.81;100.00;97405.47;4130129;28;20210;-66
2024/01/06 00:55:29;;;;;;;1.75;1.63;;;;;;;3.81;100.00;97404.66;4163730;28;20215;-66
2024/01/06 00:57:30;;;;;;;1.45;1.38;;;;;;;3.72;100.00;97417.72;4131016;28;20357;-65
2024/01/06 00:59:32;;;;;;;2.45;2.25;;;;;;;3.71;100.00;97407.97;4128222;28;21058;-66
2024/01/06 01:01:33;;;;;;;1.95;1.33;;;;;;;3.77;100.00;97417.84;4129211;28;21171;-66
2024/01/06 01:03:35;;;;;;;2.63;1.73;;;;;;;3.71;100.00;97412.53;4129319;28;20253;-66
2024/01/06 01:05:37;;;;;;;1.45;1.35;;;;;;;3.67;100.00;97416.78;4130590;28;20314;-66
2024/01/06 01:07:39;;;;;;;1.30;1.30;;;;;;;3.72;100.00;97423.13;4128716;28;20212;-65
2024/01/06 01:09:40;;;;;;;6.07;1.42;;;;;;;3.72;100.00;97427.69;4131219;28;20226;-66
2024/01/06 01:11:42;;;;;;;0.98;0.98;;;;;;;3.68;100.00;97427.34;4131771;28;20716;-66
2024/01/06 01:13:44;;;;;;;2.63;1.85;;;;;;;3.80;100.00;97430.09;4144963;28;20209;-66
2024/01/06 01:15:45;;;;;;;9.43;1.42;;;;;;;3.79;100.00;97434.66;4127614;28;20321;-65
2024/01/06 01:17:47;;;;;;;1.55;1.45;;;;;;;3.91;100.00;97430.09;4129633;28;20260;-66
2024/01/06 01:19:49;;;;;;;1.35;1.30;;;;;;;3.89;100.00;97428.66;4135494;28;20225;-66
2024/01/06 01:21:55;;;;;;;1.63;1.52;;;;;;;4.00;100.00;97434.06;4129761;28;20708;-66
2024/01/06 01:23:57;;;;;;;1.23;1.23;;;;;;;3.97;100.00;97433.72;4129031;28;20301;-65
2024/01/06 01:25:58;;;;;;;2.47;2.38;;;;;;;3.98;100.00;97441.63;4130474;28;20808;-66
2024/01/06 01:28:00;;;;;;;1.60;1.20;;;;;;;4.03;100.00;97444.44;4131291;28;20243;-65
2024/01/06 01:30:02;;;;;;;8.18;1.25;;;;;;;4.03;100.00;97447.16;4130002;28;20234;-66
2024/01/06 01:32:04;;;;;;;1.00;1.00;;;;;;;4.11;100.00;97452.22;4127163;28;20212;-65
2024/01/06 01:34:06;;;;;;;1.48;1.42;;;;;;;4.09;100.00;97446.22;4131740;28;20210;-65
2024/01/06 01:36:08;;;;;;;0.90;0.90;;;;;;;4.09;100.00;97451.63;4128919;28;20678;-65
2024/01/06 01:38:10;;;;;;;1.30;1.23;;;;;;;4.05;100.00;97455.84;4127955;28;20210;-65
2024/01/06 01:40:11;;;;;;;1.25;1.25;;;;;;;4.11;100.00;97460.31;4131944;28;20290;-65
2024/01/06 01:42:13;;;;;;;2.00;1.90;;;;;;;4.07;100.00;97456.44;4132606;28;20721;-65
2024/01/06 01:44:16;;;;;;;1.40;1.30;;;;;;;4.09;100.00;97462.44;4129590;28;20218;-65
2024/01/06 01:46:17;;;;;;;1.27;1.20;;;;;;;4.09;100.00;97467.03;4128495;28;20317;-65
2024/01/06 01:48:20;;;;;;;1.48;1.38;;;;;;;4.08;100.00;97462.69;4129596;28;20627;-66
2024/01/06 01:50:23;;;;;;;1.55;1.45;;;;;;;4.15;100.00;97466.91;4161273;28;20608;-66
2024/01/06 01:52:24;;;;;;;2.13;2.03;;;;;;;4.13;100.00;97471.72;4131927;28;20269;-66
2024/01/06 01:54:26;;;;;;;0.80;0.80;;;;;;;4.21;100.00;97465.97;4129697;28;20244;-66
2024/01/06 01:56:33;;;;;;;1.08;1.08;;;;;;;4.25;100.00;97458.19;4161675;28;20286;-65
2024/01/06 01:58:35;;;;;;;1.52;1.52;;;;;;;4.28;100.00;97465.84;4127986;28;20858;-66
2024/01/06 02:00:37;;;;;;;1.63;1.38;;;;;;;4.28;100.00;97466.66;4124604;28;20284;-66
2024/01/06 02:02:38;;;;;;;1.50;1.50;;;;;;;4.31;100.00;97470.78;4156788;28;20684;-65
2024/01/06 02:04:41;;;;;;;1.50;1.40;;;;;;;4.31;100.00;97478.91;4129354;28;20205;-65
2024/01/06 02:06:42;;;;;;;1.27;1.27;;;;;;;4.24;100.00;97473.63;4127431;28;20668;-65
2024/01/06 02:08:44;;;;;;;1.25;1.02;;;;;;;4.33;100.00;97469.50;4127496;28;20216;-65
2024/01/06 02:10:46;;;;;;;1.42;1.33;;;;;;;4.31;100.00;97477.03;4128152;28;20277;-66
2024/01/06 02:12:48;;;;;;;1.55;1.20;;;;;;;4.32;100.00;97473.25;4130357;28;20673;-65
2024/01/06 02:14:50;;;;;;;1.42;1.42;;;;;;;4.36;100.00;97469.03;4126333;28;20222;-65
2024/01/06 02:16:52;;;;;;;1.38;1.23;;;;;;;4.31;100.00;97471.63;4129805;28;20288;-66
2024/01/06 02:18:53;;;;;;;1.20;1.20;;;;;;;4.25;100.00;97461.72;4130749;28;20210;-66
2024/01/06 02:20:58;;;;;;;1.13;1.10;;;;;;;4.24;100.00;97465.50;4145233;28;20617;-66
2024/01/06 02:23:00;;;;;;;1.48;0.95;;;;;;;4.37;100.00;97465.25;4126631;28;20278;-65
2024/01/06 02:25:07;;;;;;;3.80;1.98;;;;;;;4.39;100.00;97473.16;4161033;28;20247;-65
2024/01/06 02:27:08;;;;;;;1.02;1.02;;;;;;;4.45;100.00;97473.03;4129577;28;20202;-65
2024/01/06 02:29:10;;;;;;;1.38;1.30;;;;;;;4.38;100.00;97474.19;4130028;28;20663;-65
2024/01/06 02:31:11;;;;;;;0.95;0.95;;;;;;;4.37;100.00;97476.09;4127840;28;20228;-65
2024/01/06 02:33:13;;;;;;;1.50;1.40;;;;;;;4.30;100.00;97480.81;4131687;28;20717;-65
2024/01/06 02:35:15;;;;;;;1.55;1.45;;;;;;;4.34;100.00;97486.56;4129108;28;20336;-66
2024/01/06 02:37:17;;;;;;;2.17;1.98;;;;;;;4.34;100.00;97481.16;4128721;28;20232;-66
2024/01/06 02:39:18;;;;;;;1.60;1.55;;;;;;;4.17;100.00;97491.88;4130471;28;20214;-65
2024/01/06 02:41:20;;;;;;;14.10;1.05;;;;;;;4.21;100.00;97493.03;4132374;28;20225;-65
2024/01/06 02:43:23;;;;;;;1.65;1.65;;;;;;;4.21;100.00;97487.63;4129628;28;20214;-65
2024/01/06 02:45:24;;;;;;;1.10;1.00;;;;;;;4.22;100.00;97483.88;4129144;28;20209;-65
2024/01/06 02:47:26;;;;;;;1.55;1.48;;;;;;;4.23;100.00;97490.94;4128740;28;20263;-65
2024/01/06 02:49:27;;;;;;;1.33;1.23;;;;;;;4.17;100.00;97491.88;4128530;28;20301;-66
2024/01/06 02:51:29;;;;;;;1.15;1.15;;;;;;;4.17;100.00;97489.16;4128110;28;20632;-65
2024/01/06 02:53:31;;;;;;;2.22;1.50;;;;;;;4.22;100.00;97489.28;4131480;28;20233;-65
2024/01/06 02:55:32;;;;;;;0.90;0.90;;;;;;;4.21;100.00;97493.03;4161171;28;20299;-65
2024/01/06 02:57:35;;;;;;;1.30;1.20;;;;;;;4.29;100.00;97495.41;4142331;28;20236;-65
2024/01/06 02:59:37;;;;;;;3.17;2.28;;;;;;;4.31;100.00;97487.88;4131717;28;20205;-65
2024/01/06 03:01:39;;;;;;;2.45;1.45;;;;;;;4.22;100.00;97483.88;4133242;28;20232;-65
2024/01/06 03:03:40;;;;;;;1.25;1.25;;;;;;;4.19;100.00;97478.91;4132825;28;20304;-65
2024/01/06 03:05:42;;;;;;;1.10;1.10;;;;;;;4.14;100.00;97484.19;4131743;28;20206;-65
2024/01/06 03:07:44;;;;;;;1.42;1.35;;;;;;;4.20;100.00;97490.56;4131969;28;20672;-65
2024/01/06 03:09:45;;;;;;;1.92;1.55;;;;;;;4.32;100.00;97494.09;4133751;28;20221;-65
2024/01/06 03:11:47;;;;;;;1.42;1.42;;;;;;;4.21;100.00;97489.50;4131251;28;20241;-65
2024/01/06 03:13:49;;;;;;;1.33;1.33;;;;;;;4.18;100.00;97493.50;4161080;28;20276;-65
2024/01/06 03:15:50;;;;;;;1.38;1.25;;;;;;;4.33;100.00;97496.56;4142942;28;20217;-65
2024/01/06 03:17:52;;;;;;;1.10;1.10;;;;;;;4.33;100.00;97501.97;4127964;28;20210;-65
2024/01/06 03:19:54;;;;;;;1.60;1.50;;;;;;;4.24;100.00;97503.41;4127528;28;20634;-65
2024/01/06 03:21:56;;;;;;;1.30;1.20;;;;;;;4.23;100.00;97501.75;4127786;28;20223;-65
2024/01/06 03:23:57;;;;;;;1.63;1.63;;;;;;;4.26;100.00;97506.69;4131122;28;20683;-65
2024/01/06 03:26:05;;;;;;;1.77;1.67;;;;;;;4.27;100.00;97502.91;4132874;28;20591;-65
2024/01/06 03:28:07;;;;;;;1.48;1.48;;;;;;;4.24;100.00;97502.56;4135263;28;20209;-65
2024/01/06 03:30:09;;;;;;;4.68;1.23;;;;;;;4.23;100.00;97507.16;4133850;28;20725;-65
2024/01/06 03:32:11;;;;;;;1.23;1.23;;;;;;;4.27;100.00;97497.50;4133062;28;20248;-65
2024/01/06 03:34:13;;;;;;;1.50;1.50;;;;;;;4.23;100.00;97493.63;4133128;28;20214;-65
2024/01/06 03:36:17;;;;;;;1.23;1.23;;;;;;;4.17;100.00;97500.00;4132332;28;20214;-65
2024/01/06 03:38:18;;;;;;;1.45;1.45;;;;;;;4.27;100.00;97497.50;4133551;28;20210;-65
2024/01/06 03:40:20;;;;;;;1.25;1.25;;;;;;;4.25;100.00;97510.47;4126926;28;20230;-65
2024/01/06 03:42:22;;;;;;;1.73;1.63;;;;;;;4.24;100.00;97507.97;4133775;28;20276;-65
2024/01/06 03:44:23;;;;;;;1.30;1.30;;;;;;;4.30;100.00;97515.16;4132349;28;20202;-65
2024/01/06 03:46:25;;;;;;;1.27;1.27;;;;;;;4.23;100.00;97518.00;4130066;28;20252;-65
2024/01/06 03:48:26;;;;;;;1.00;1.00;;;;;;;4.24;100.00;97514.22;4129594;28;20206;-65
2024/01/06 03:50:28;;;;;;;1.38;1.27;;;;;;;4.26;100.00;97522.94;4132932;28;20222;-65
2024/01/06 03:52:30;;;;;;;1.55;1.45;;;;;;;4.26;100.00;97522.94;4131694;28;20245;-65
2024/01/06 03:54:31;;;;;;;1.00;1.00;;;;;;;4.31;100.00;97525.78;4131705;28;20213;-65
2024/01/06 03:56:33;;;;;;;1.38;1.35;;;;;;;4.33;100.00;97528.25;4163063;28;20243;-65
2024/01/06 03:58:35;;;;;;;1.67;1.35;;;;;;;4.30;100.00;97528.69;4132081;28;20684;-65
2024/01/06 04:00:36;;;;;;;2.28;2.10;;;;;;;4.37;100.00;97524.84;4133793;28;20222;-65
2024/01/06 04:02:38;;;;;;;1.63;1.23;;;;;;;4.44;100.00;97530.13;4131412;28;20226;-65
2024/01/06 04:04:40;;;;;;;1.90;1.80;;;;;;;4.40;100.00;97532.47;4131966;28;20256;-65
2024/01/06 04:06:41;;;;;;;1.73;1.63;;;;;;;4.39;100.00;97525.41;4134897;28;20601;-65
2024/01/06 04:08:43;;;;;;;3.78;1.92;;;;;;;4.37;100.00;97529.41;4131226;28;20260;-65
2024/01/06 04:10:45;;;;;;;0.85;0.85;;;;;;;4.43;100.00;97523.91;4131229;28;20285;-65
2024/01/06 04:12:46;;;;;;;0.90;0.90;;;;;;;4.46;100.00;97522.59;4130605;28;20685;-65
2024/01/06 04:14:48;;;;;;;6.53;2.25;;;;;;;4.45;100.00;97524.47;4128875;28;20209;-65
2024/01/06 04:16:49;;;;;;;2.05;1.95;;;;;;;4.41;100.00;97519.75;4131248;28;20623;-65
2024/01/06 04:18:51;;;;;;;1.65;1.55;;;;;;;4.48;100.00;97513.16;4133277;28;20241;-65
2024/01/06 04:20:53;;;;;;;7.75;1.85;;;;;;;4.49;100.00;97517.53;4129809;28;20453;-65
2024/01/06 04:22:54;;;;;;;1.15;1.08;;;;;;;4.49;100.00;97520.25;4130456;28;20249;-65
2024/01/06 04:24:56;;;;;;;1.35;1.27;;;;;;;4.46;100.00;97518.00;4130858;28;20218;-65
2024/01/06 04:26:58;;;;;;;3.55;1.20;;;;;;;4.52;100.00;97517.06;4131008;28;20209;-65
2024/01/06 04:28:59;;;;;;;3.67;1.60;;;;;;;4.46;100.00;97519.88;4128205;28;20245;-65
2024/01/06 04:31:01;;;;;;;1.80;1.70;;;;;;;4.58;100.00;97521.53;4163392;28;20282;-65
2024/01/06 04:33:03;;;;;;;1.00;0.95;;;;;;;4.49;100.00;97528.38;4130428;28;20212;-65
2024/01/06 04:35:05;;;;;;;1.90;1.75;;;;;;;4.49;100.00;97525.66;4160698;28;20231;-65
2024/01/06 04:37:06;;;;;;;2.40;2.30;;;;;;;4.45;100.00;97527.19;4132117;28;20241;-65
2024/01/06 04:39:08;;;;;;;0.98;0.98;;;;;;;4.51;100.00;97537.06;4133218;28;20621;-65
2024/01/06 04:41:10;;;;;;;1.25;1.25;;;;;;;4.46;100.00;97528.03;4146740;28;20275;-65
2024/01/06 04:43:11;;;;;;;1.33;1.23;;;;;;;4.58;100.00;97528.81;4135637;28;20241;-65
2024/01/06 04:45:13;;;;;;;1.27;1.27;;;;;;;4.56;100.00;97539.91;4134134;28;20249;-65
2024/01/06 04:47:15;;;;;;;1.00;1.00;;;;;;;4.51;100.00;97528.94;4132918;28;20229;-65
2024/01/06 04:49:16;;;;;;;1.35;1.25;;;;;;;4.63;100.00;97528.94;4167370;28;20205;-65
2024/01/06 04:51:18;;;;;;;3.58;1.30;;;;;;;4.50;100.00;97526.47;4131025;28;20236;-65
2024/01/06 04:53:20;;;;;;;1.30;1.30;;;;;;;4.54;100.00;97530.38;4132395;28;20213;-65
2024/01/06 04:55:21;;;;;;;1.23;1.20;;;;;;;4.64;100.00;97534.13;4131174;28;20206;-65
2024/01/06 04:57:24;;;;;;;1.60;1.50;;;;;;;4.59;100.00;97538.63;4131073;28;20297;-65
2024/01/06 04:59:26;;;;;;;1.65;1.55;;;;;;;4.47;100.00;97535.88;4130813;28;20206;-65
2024/01/06 05:01:27;;;;;;;1.27;1.27;;;;;;;4.52;100.00;97530.59;4131388;28;20210;-65
2024/01/06 05:03:29;;;;;;;1.85;1.75;;;;;;;4.49;100.00;97522.13;4128287;28;20241;-66
2024/01/06 05:05:31;;;;;;;2.13;2.03;;;;;;;4.46;100.00;97531.53;4164132;28;20210;-66
2024/01/06 05:07:32;;;;;;;2.67;1.17;;;;;;;4.47;100.00;97530.47;4129797;28;20198;-66
2024/01/06 05:09:34;;;;;;;4.07;1.77;;;;;;;4.45;100.00;97538.00;4130414;28;20272;-66
2024/01/06 05:11:35;;;;;;;3.38;1.67;;;;;;;4.40;100.00;97523.53;4160736;28;20224;-66
2024/01/06 05:13:37;;;;;;;1.85;1.75;;;;;;;4.43;100.00;97529.31;4129982;28;20233;-66
2024/01/06 05:15:39;;;;;;;10.43;2.10;;;;;;;4.43;100.00;97534.72;4160261;28;20207;-65
2024/01/06 05:17:40;;;;;;;2.08;1.90;;;;;;;4.46;100.00;97534.25;4128280;28;20657;-66
2024/01/06 05:19:42;;;;;;;1.40;1.30;;;;;;;4.50;100.00;97540.84;4133015;28;20320;-65
2024/01/06 05:21:43;;;;;;;1.52;1.45;;;;;;;4.58;100.00;97543.19;4164300;28;20294;-66
2024/01/06 05:23:45;;;;;;;9.35;2.05;;;;;;;4.50;100.00;97551.69;4131653;28;20275;-65
2024/01/06 05:25:47;;;;;;;2.17;1.60;;;;;;;4.52;100.00;97546.84;4130034;28;20206;-65
2024/01/06 05:27:48;;;;;;;1.90;1.80;;;;;;;4.47;100.00;97552.13;4130270;28;20254;-66
2024/01/06 05:29:51;;;;;;;1.38;1.38;;;;;;;4.55;100.00;97549.09;4133089;28;20253;-66
2024/01/06 05:31:53;;;;;;;1.58;1.48;;;;;;;4.53;100.00;97555.81;4129936;28;20209;-65
2024/01/06 05:33:55;;;;;;;4.15;2.22;;;;;;;4.53;100.00;97555.81;4131148;28;20297;-66
2024/01/06 05:35:56;;;;;;;1.65;1.55;;;;;;;4.58;100.00;97556.75;4130265;28;20206;-65
2024/01/06 05:37:58;;;;;;;1.30;1.30;;;;;;;4.57;100.00;97552.38;4129968;28;20213;-66
2024/01/06 05:40:02;;;;;;;1.52;1.05;;;;;;;4.56;100.00;97556.16;4129759;28;20273;-66
2024/01/06 05:42:04;;;;;;;3.17;1.60;;;;;;;4.57;100.00;97552.38;4129178;28;20218;-65
2024/01/06 05:44:05;;;;;;;1.83;1.73;;;;;;;4.70;100.00;97551.31;4130376;28;20264;-65
2024/01/06 05:46:07;;;;;;;2.03;1.92;;;;;;;4.52;100.00;97560.38;4131098;28;20205;-65
2024/01/06 05:48:10;;;;;;;1.35;1.35;;;;;;;4.65;100.00;97552.03;4162963;28;20248;-65
2024/01/06 05:50:15;;;;;;;1.30;1.30;;;;;;;4.65;100.00;97553.91;4128471;28;20276;-65
2024/01/06 05:52:16;;;;;;;2.00;1.90;;;;;;;4.56;100.00;97553.44;4128468;28;20229;-65
2024/01/06 05:54:18;;;;;;;1.60;1.50;;;;;;;4.60;100.00;97556.50;4130975;28;20203;-65
2024/01/06 05:56:27;;;;;;;1.75;1.65;;;;;;;4.57;100.00;97562.38;4133037;28;20223;-65
2024/01/06 05:58:28;;;;;;;2.15;1.92;;;;;;;4.57;100.00;97562.38;4127510;28;20209;-65
2024/01/06 06:00:31;;;;;;;2.10;1.98;;;;;;;4.59;100.00;97571.91;4132714;28;20226;-65
2024/01/06 06:02:33;;;;;;;1.63;1.52;;;;;;;4.58;100.00;97562.16;4126442;28;20582;-65
2024/01/06 06:04:34;;;;;;;2.38;2.22;;;;;;;4.56;100.00;97567.00;4129743;28;20244;-65
2024/01/06 06:06:37;;;;;;;1.63;1.33;;;;;;;4.53;100.00;97570.16;4159427;28;20200;-65
2024/01/06 06:08:42;;;;;;;2.42;1.83;;;;;;;4.51;100.00;97585.81;4130196;28;20198;-65
2024/01/06 06:11:00;;;;;;;2.15;2.05;;;;;;;4.53;100.00;97570.16;4159261;28;20680;-65
2024/01/06 06:13:02;;;;;;;11.38;2.28;;;;;;;4.55;100.00;97573.47;4132205;28;20203;-65
2024/01/06 06:15:05;;;;;;;2.70;2.45;;;;;;;4.69;100.00;97574.88;4159099;28;20668;-66
2024/01/06 06:17:07;;;;;;;2.78;1.80;;;;;;;4.61;100.00;97572.50;4131487;28;20205;-65
2024/01/06 06:19:08;;;;;;;1.85;1.75;;;;;;;4.64;100.00;97582.88;4129074;28;20237;-65
2024/01/06 06:21:10;;;;;;;3.05;2.75;;;;;;;4.63;100.00;97575.81;4126260;28;20651;-66
2024/01/06 06:23:12;;;;;;;1.35;1.15;;;;;;;4.60;100.00;97579.00;4126696;28;20277;-65
2024/01/06 06:25:14;;;;;;;1.52;1.42;;;;;;;4.54;100.00;97585.34;4127715;28;20263;-65
2024/01/06 06:27:15;;;;;;;2.30;2.13;;;;;;;4.61;100.00;97591.47;4127499;28;20272;-65
2024/01/06 06:29:17;;;;;;;4.30;2.25;;;;;;;4.59;100.00;97603.63;4131385;28;20209;-65
2024/01/06 06:31:18;;;;;;;1.58;1.48;;;;;;;4.63;100.00;97602.91;4132537;28;20246;-65
2024/01/06 06:33:20;;;;;;;1.38;1.27;;;;;;;4.67;100.00;97605.97;4131288;28;20656;-65
2024/01/06 06:35:23;;;;;;;1.60;1.52;;;;;;;4.56;100.00;97604.91;4131509;28;20325;-65
2024/01/06 06:37:25;;;;;;;1.42;1.33;;;;;;;4.66;100.00;97609.75;4130923;28;20210;-65
2024/01/06 06:39:27;;;;;;;1.90;1.80;;;;;;;4.65;100.00;97608.91;4110781;28;20214;-65
2024/01/06 06:41:28;;;;;;;5.00;1.23;;;;;;;4.64;100.00;97612.69;4131319;28;20709;-66
2024/01/06 06:43:30;;;;;;;2.10;2.00;;;;;;;4.60;100.00;97610.69;4131979;28;20230;-65
2024/01/06 06:45:32;;;;;;;2.97;1.80;;;;;;;4.63;100.00;97613.75;4128671;28;20218;-65
2024/01/06 06:47:33;;;;;;;2.50;1.80;;;;;;;4.57;100.00;97616.56;4130585;28;20672;-65
2024/01/06 06:49:35;;;;;;;2.75;2.30;;;;;;;4.69;100.00;97626.38;4130062;28;20241;-65
2024/01/06 06:51:37;;;;;;;1.73;1.63;;;;;;;4.67;100.00;97616.81;4131943;28;20280;-65
2024/01/06 06:53:38;;;;;;;2.13;1.98;;;;;;;4.66;100.00;97632.22;4129636;28;20206;-64
2024/01/06 06:55:40;;;;;;;3.30;2.90;;;;;;;4.60;100.00;97632.34;4131245;28;20242;-65
2024/01/06 06:57:42;;;;;;;5.28;2.70;;;;;;;4.66;100.00;97634.94;4131500;28;20225;-65
2024/01/06 06:59:44;;;;;;;2.40;2.20;;;;;;;4.64;100.00;97637.06;4132919;28;20360;-65
2024/01/06 07:01:46;;;;;;;2.60;2.40;;;;;;;4.64;100.00;97638.94;4138365;28;20232;-65
2024/01/06 07:03:47;;;;;;;1.88;1.77;;;;;;;4.67;100.00;97650.13;4168216;28;20242;-64
2024/01/06 07:05:49;;;;;;;2.13;2.03;;;;;;;4.60;100.00;97648.63;4135958;28;20205;-64
2024/01/06 07:07:51;;;;;;;2.30;2.13;;;;;;;4.67;100.00;97655.56;4151249;28;20951;-65
2024/01/06 07:09:52;;;;;;;3.97;2.47;;;;;;;4.69;100.00;97658.03;4131709;28;20222;-64
2024/01/06 07:11:54;;;;;;;2.75;2.55;;;;;;;4.67;100.00;97650.13;4133583;28;20562;-65
2024/01/06 07:13:56;;;;;;;1.40;1.30;;;;;;;4.71;100.00;97653.19;4132828;28;20369;-64
2024/01/06 07:15:57;;;;;;;3.03;2.83;;;;;;;4.72;100.00;97658.38;4131506;28;20249;-64
2024/01/06 07:18:22;;;;;;;2.38;2.17;;;;;;;4.64;100.00;97655.19;4133369;28;20226;-64
2024/01/06 07:20:24;;;;;;;3.13;2.85;;;;;;;4.73;100.00;97660.03;4129203;28;20269;-64
2024/01/06 07:22:26;;;;;;;2.80;2.30;;;;;;;4.65;100.00;97663.09;4133467;28;20296;-65
2024/01/06 07:24:28;;;;;;;3.15;2.95;;;;;;;4.73;100.00;97654.63;4132484;28;20687;-65
2024/01/06 07:26:30;;;;;;;3.22;2.00;;;;;;;4.75;100.00;97657.94;4164493;28;20653;-65
2024/01/06 07:28:31;;;;;;;2.67;2.50;;;;;;;4.66;100.00;97659.31;4137677;28;20276;-65
2024/01/06 07:30:33;;;;;;;3.08;2.88;;;;;;;4.72;100.00;97673.81;4127248;28;20230;-65
2024/01/06 07:32:35;;;;;;;2.22;2.13;;;;;;;4.67;100.00;97671.00;4130706;28;20202;-65
2024/01/06 07:34:36;;;;;;;2.17;2.08;;;;;;;4.66;100.00;97674.78;4130389;28;20225;-65
2024/01/06 07:36:39;;;;;;;2.13;1.90;;;;;;;4.69;100.00;97669.72;4118687;28;20700;-65
2024/01/06 07:38:41;;;;;;;2.30;2.20;;;;;;;4.71;100.00;97678.41;4133452;28;20682;-65
2024/01/06 07:40:44;;;;;;;3.72;3.42;;;;;;;4.78;100.00;97679.13;4134405;28;20253;-65
2024/01/06 07:42:45;;;;;;;2.50;2.33;;;;;;;4.78;100.00;97687.25;4134638;28;20228;-65
2024/01/06 07:44:47;;;;;;;9.40;3.33;;;;;;;4.75;100.00;97682.31;4129349;28;20706;-65
2024/01/06 07:46:48;;;;;;;4.18;3.78;;;;;;;4.75;100.00;97681.47;4131839;28;20689;-65
2024/01/06 07:48:50;;;;;;;7.65;2.33;;;;;;;4.81;100.00;97692.19;4132770;28;20296;-65
2024/01/06 07:50:52;;;;;;;3.63;3.33;;;;;;;4.75;100.00;97693.16;4133175;28;20237;-65
2024/01/06 07:52:54;;;;;;;2.70;2.15;;;;;;;4.73;100.00;97697.97;4132723;28;20241;-65
2024/01/06 07:54:55;;;;;;;3.35;3.10;;;;;;;4.74;100.00;97699.63;4132109;28;20230;-65
2024/01/06 07:56:57;;;;;;;2.42;2.28;;;;;;;4.78;100.00;97700.81;4129831;28;20213;-65
2024/01/06 07:58:58;;;;;;;2.30;2.20;;;;;;;4.65;100.00;97701.03;4131948;28;20212;-65
2024/01/06 08:01:01;;;;;;;2.30;2.10;;;;;;;4.66;100.00;97708.09;4129913;28;20261;-65
2024/01/06 08:03:05;;;;;;;3.20;2.67;;;;;;;4.75;100.00;97709.41;4131367;28;20652;-65
2024/01/06 08:05:07;;;;;;;4.78;1.85;;;;;;;4.74;100.00;97713.16;4132886;28;21097;-65
2024/01/06 08:07:09;;;;;;;2.63;2.42;;;;;;;4.68;100.00;97711.38;4164335;28;20209;-65
2024/01/06 08:09:10;;;;;;;6.68;2.20;;;;;;;4.72;100.00;97723.41;4133132;28;20268;-65
2024/01/06 08:11:12;;;;;;;2.67;2.47;;;;;;;4.69;100.00;97726.59;4132545;28;20233;-65
2024/01/06 08:13:14;;;;;;;2.65;2.45;;;;;;;4.74;100.00;97726.72;4161530;28;20204;-65
2024/01/06 08:15:15;;;;;;;9.52;3.80;;;;;;;4.76;100.00;97719.19;4161423;28;20208;-65
2024/01/06 08:17:17;;;;;;;2.90;2.65;;;;;;;4.82;100.00;97723.69;4133474;28;20669;-65
2024/01/06 08:19:20;;;;;;;3.40;3.15;;;;;;;4.72;100.00;97723.41;4133043;28;20216;-65
2024/01/06 08:21:21;;;;;;;2.67;2.47;;;;;;;4.70;100.00;97725.53;4132051;28;20210;-65
2024/01/06 08:23:23;;;;;;;3.25;3.05;;;;;;;4.74;100.00;97725.91;4129838;28;20232;-65
2024/01/06 08:25:24;;;;;;;4.38;3.97;;;;;;;4.73;100.00;97724.25;4133049;28;20201;-65
2024/01/06 08:27:26;;;;;;;5.40;2.28;;;;;;;4.85;100.00;97734.03;4130786;28;20234;-65
2024/01/06 08:29:28;;;;;;;3.55;3.25;;;;;;;4.77;100.00;97734.38;4130230;28;20238;-65
2024/01/06 08:31:29;;;;;;;3.63;3.33;;;;;;;4.77;100.00;97737.09;4133263;28;20205;-65
2024/01/06 08:33:31;;;;;;;3.67;3.40;;;;;;;4.80;100.00;97735.81;4132377;28;20252;-65
2024/01/06 08:35:33;;;;;;;2.55;2.45;;;;;;;4.81;100.00;97735.56;4130181;28;20201;-65
2024/01/06 08:37:35;;;;;;;5.15;3.83;;;;;;;4.73;100.00;97738.59;4133181;28;20373;-65
2024/01/06 08:39:36;;;;;;;3.10;2.90;;;;;;;4.73;100.00;97741.31;4132228;28;20333;-65
2024/01/06 08:41:38;;;;;;;2.33;2.22;;;;;;;4.87;100.00;97742.75;4131126;28;20216;-65
2024/01/06 08:43:40;;;;;;;4.85;4.55;;;;;;;4.88;100.00;97749.00;4167250;28;20236;-65
2024/01/06 08:45:42;;;;;;;3.17;2.97;;;;;;;4.81;100.00;97743.69;4134108;28;20297;-65
2024/01/06 08:47:43;;;;;;;3.42;3.13;;;;;;;4.96;100.00;97746.81;4134940;28;20210;-65
2024/01/06 08:49:45;;;;;;;9.65;4.47;;;;;;;4.90;100.00;97747.72;4135031;28;20845;-65
2024/01/06 08:51:47;;;;;;;3.10;2.78;;;;;;;4.92;100.00;97751.03;4134514;28;20562;-65
2024/01/06 08:53:49;;;;;;;2.70;2.60;;;;;;;5.01;100.00;97749.63;4133965;28;20860;-65
2024/01/06 08:55:51;;;;;;;4.45;3.58;;;;;;;4.95;100.00;97749.72;4132913;28;20202;-65
2024/01/06 08:57:52;;;;;;;3.40;2.28;;;;;;;4.91;100.00;97749.38;4135790;28;20230;-65
2024/01/06 08:59:54;;;;;;;3.47;3.28;;;;;;;4.94;100.00;97751.59;4135671;28;20724;-65
2024/01/06 09:01:56;;;;;;;3.15;2.95;;;;;;;4.97;100.00;97756.59;4132798;28;20288;-65
2024/01/06 09:03:58;;;;;;;3.38;2.25;;;;;;;4.97;100.00;97759.28;4130495;28;20233;-65
2024/01/06 09:06:00;;;;;;;3.10;2.90;;;;;;;5.06;100.00;97762.50;4133406;28;20238;-65
2024/01/06 09:08:03;;;;;;;2.53;2.40;;;;;;;5.13;100.00;97763.22;4131401;28;20280;-65
2024/01/06 09:10:04;;;;;;;3.15;2.95;;;;;;;5.06;100.00;97757.88;4137153;28;20241;-64
2024/01/06 09:12:06;;;;;;;3.33;3.03;;;;;;;5.12;100.00;97762.38;4163286;28;20204;-64
2024/01/06 09:14:09;;;;;;;2.38;1.88;;;;;;;5.12;100.00;97756.94;4132043;28;20209;-64
2024/01/06 09:16:11;;;;;;;3.10;2.05;;;;;;;5.10;100.00;97764.50;4131511;28;20214;-64
2024/01/06 09:18:13;;;;;;;2.55;2.35;;;;;;;5.13;100.00;97768.63;4131692;28;20202;-64
2024/01/06 09:20:22;;;;;;;4.60;3.42;;;;;;;5.22;100.00;97768.06;4161768;28;20224;-65
2024/01/06 09:22:24;;;;;;;4.55;3.17;;;;;;;5.15;100.00;97778.19;4130591;28;20289;-64
2024/01/06 09:24:25;;;;;;;3.47;3.20;;;;;;;5.20;100.00;97779.13;4135705;28;20590;-64
2024/01/06 09:26:27;;;;;;;3.05;2.78;;;;;;;5.22;100.00;97774.28;4131248;28;20242;-64
2024/01/06 09:28:29;;;;;;;3.13;2.70;;;;;;;5.21;100.00;97777.22;4128829;28;20214;-64
2024/01/06 09:30:30;;;;;;;3.80;3.50;;;;;;;5.33;100.00;97780.78;4128969;28;20616;-64
2024/01/06 09:32:32;;;;;;;3.90;3.70;;;;;;;5.36;100.00;97780.31;4131425;28;20809;-64
2024/01/06 09:34:34;;;;;;;5.65;5.22;;;;;;;5.33;100.00;97786.19;4147456;28;20212;-64